Sarasota Bradenton International Airport

Date: 2024-06-11 04:04:00Z

Type: SPECI

Weather: Heavy Rain

Winds: 160° at 3 kts

Visibility: 0.75

Ceiling (AGL FT): Clouds FEW at 1100, BROKEN at 2000, OVERCAST at 2900

RAW METAR: KSRQ 110404Z AUTO 16003KT 3/4SM +RA BR FEW011 BKN020 OVC029 25/24 A2987 RMK AO2 LTG DSNT E RAB0354 P0036 T02500239

project-image